Terminal Aerodrome Forecast
Issued by NWS

Home | Current Version | Previous Version | Text Only | Print | Product List | Glossary Off
Versions: 1 2 3 4 5 6 7 8 9 10 11 12 13 14 15 16 17 18 19 20 21 22 23 24 25 26 27 28 29 30 31 32 33 34 35 36 37 38 39 40 41 42 43 44 45 46 47 48 49 50

684
FTUS43 KLOT 282058 AAA
TAFGYY
TAF AMD
KGYY 282058Z 2821/2918 03006KT P6SM VCTS SCT030CB BKN080
      TEMPO 2821/2824 VRB15G25KT 2SM -TSRA BKN040CB
     FM290100 03009KT P6SM SCT030 BKN050
     FM290800 VRB03KT 4SM BR VCSH FEW040 SCT250
     FM291500 06007KT 6SM -SHRA BR SCT025 OVC050=

USA.gov is the U.S. government's official web portal to all federal, state and local government web resources and services.